Terminal Aerodrome Forecast
Issued by NWS

Home | Current Version | Previous Version | Text Only | Print | Product List | Glossary On
Versions: 1 2 3 4 5 6 7 8 9 10 11 12 13 14 15 16 17 18 19
000
FTUS45 KBOU 230520
TAFAPA
TAF
KAPA 230520Z 2306/2406 22008KT P6SM FEW140 SCT220
     FM231500 VRB05KT P6SM FEW140 SCT220
     FM231800 02008KT P6SM FEW140 BKN220
     FM232300 30010KT P6SM SCT090 BKN140 PROB30 2323/2403 VRB20G30KT
      -TSRA BKN090CB
     FM240300 24008KT P6SM FEW090 BKN140=

USA.gov is the U.S. government's official web portal to all federal, state and local government web resources and services.